Edwards Creek Valley, Nevada Weather observations

Data are for observation ending at time listed.
 Day   Time    Ave.   Ave.  Ave.  Vector   Max.   Stn.    Total    Solar   Ave.  
  of    of     Air    Rel.  Wind   Wind    Wind   Baro.  Precip.   Rad.    Soil  
Year   Day     Temp.  Hum.  Speed  Dir.    Gust   Pres.                    Temp. 
2014   (PST)    F      %     mph   deg.    mph     mb.     in.     W/m2     F   
------------------------------------------------------------------------------
 113   12:30   52.1    22    4.8   300     13.6    844     0.00     929     68.8
 113   12:40   54.0    21    7.4   194     15.4    844     0.00     912     69.4
 113   12:50   54.7    21    7.0   241     14.1    844     0.00     915     69.9
 113   13:00   55.1    20    7.3   213     16.0    844     0.00     906     70.5
 113   13:10   54.8    21    7.0   227     13.8    845     0.00     893     71.0
 113   13:20   54.3    21    4.9   272     12.9    845     0.00     871     71.4
 113   13:30   55.9    20    7.8   212     15.4    845     0.00     865     71.9
 113   13:40   56.5    19    7.3   242     16.1    845     0.00     833     72.2
 113   13:50   55.5    19    7.5   244     19.1    845     0.00     799     72.4
 113   14:00   57.1    18    7.8   201     17.0    844     0.00     798     72.6
 113   14:10   56.2    19    4.3   161     11.2    844     0.00     789     72.6
 113   14:20   56.9    18    4.5   186     11.2    844     0.00     772     72.7
 113   14:30   57.3    17    7.9   189     17.1    845     0.00     730     72.8
 113   14:40   57.0    17    6.0   151     13.1    845     0.00     694     72.9
 113   14:50   56.5    17    3.3   160      8.0    844     0.00     645     72.8
 113   15:00   57.8    15    6.3   215     14.3    844     0.00     638     72.6
 113   15:10   57.8    15    5.9   201     11.2    844     0.00     594     71.9
 113   15:20   58.5    15    9.8   205     17.4    844     0.00     543     71.2
 113   15:30   57.2    16    6.7   209     17.0    844     0.00     524     70.4
 113   15:40   57.3    15    9.4   197     16.6    844     0.00     469     69.8
 113   15:50   57.2    16    8.4   199     15.1    844     0.00      84     69.4
 113   16:00   57.1    16    7.6   180     13.7    844     0.00      73     68.9
 113   16:10   58.0    15    7.3   205     14.0    844     0.00      68     68.6
 113   16:20   57.6    15    8.0   193     14.8    844     0.00     278     68.3
 113   16:30   57.5    16    7.3   241     15.3    844     0.00     120     68.0
 113   16:40   57.4    16    7.4   270     14.4    844     0.00     153     67.7
 113   16:50   57.4    16    7.7   242     23.7    844     0.00     227     67.4
 113   17:00   56.7    18    7.5   260     15.3    845     0.00     232     67.0
 113   17:10   56.1    19    7.8   289     13.8    845     0.00     266     66.7
 113   17:20   55.7    20   11.6   292     17.0    845     0.00     226     66.2
 113   17:30   55.3    20   10.5   277     15.3    845     0.00     195     65.8
 113   17:40   54.9    20   11.2   285     15.1    845     0.00     180     65.4
 113   17:50   54.2    22   11.7   289     15.3    845     0.00     146     65.0
 113   18:00   53.6    21   11.9   295     17.1    845     0.00     112     64.6
 113   18:10   53.0    21   11.2   287     15.3    845     0.00      76     64.2
 113   18:20   52.2    21   10.2   286     14.0    845     0.00      33     63.7
 113   18:30   51.2    22    8.4   287     12.6    845     0.00      16     63.3
 113   18:40   50.4    22    5.6   282      8.6    845     0.00       8     62.8
 113   18:50   49.3    23    4.6   290      6.7    845     0.00       2     62.4
 113   19:00   48.1    24    3.6   252      5.9    845     0.00       0     61.9
 113   19:10   47.4    25    3.1   229      5.0    845     0.00       0     61.4
 113   19:20   47.0    24    2.2   205      4.5    845     0.00       0     60.9
 113   19:30   43.7    26    3.5   172      5.1    845     0.00       0     60.5
 113   19:40   41.4    28    4.5   159      5.5    845     0.00       0     60.0
 113   19:50   43.2    28    3.7   222      5.3    846     0.00       0     59.5
 113   20:00   45.7    27    0.9   273      1.6    845     0.00       0     59.1
 113   20:10   42.2    27    3.5   170      5.8    845     0.00       0     58.7
 113   20:20   39.2    30    5.3   142      7.2    845     0.00       0     58.3
 113   20:30   40.3    30    4.0   135      5.5    845     0.00       0     57.9
 113   20:40   40.0    29    3.8   163      5.1    845     0.00       0     57.5
 113   20:50   38.2    31    4.4   193      6.9    846     0.00       0     57.1
 113   21:00   37.9    31    4.2   194      5.6    845     0.00       0     56.7
 113   21:10   37.6    31    4.0   194      6.1    845     0.00       0     56.3
 113   21:20   38.0    31    5.1   195      6.4    845     0.00       0     56.0
 113   21:30   38.3    30    4.7   185      6.2    845     0.00       0     55.7
 113   21:40   36.2    32    4.8   168      6.4    845     0.00       0     55.3
 113   21:50   38.2    32    4.3   195      6.1    845     0.00       0     55.0
 113   22:00   35.7    32    4.3   193      7.7    845     0.00       0     54.7
 113   22:10   37.2    33    4.5   199      6.6    845     0.00       0     54.4
 113   22:20   36.9    33    4.2   170      5.5    845     0.00       0     54.1
 113   22:30   38.0    32    3.8   185      6.1    845     0.00       0     53.8
 113   22:40   36.1    34    4.2   180      6.0    845     0.00       0     53.5
 113   22:50   35.1    33    3.0   196      4.6    845     0.00       0     53.3
 113   23:00   32.9    36    0.9   173      2.7    846     0.00       0     53.0
 113   23:10   32.0    36    0.9    93      3.4    845     0.00       0     52.8
 113   23:20   31.8    38    1.1   201      2.7    845     0.00       0     52.5
 113   23:30   31.2    38    2.6   210      4.1    845     0.00       0     52.2
 113   23:40   30.5    40    3.7   216      6.2    845     0.00       0     51.9
 113   23:50   29.8    41    3.2   196      6.3    844     0.00       0     51.6
 114    0:00   30.0    40    4.1   190      4.8    844     0.00       0     51.4
 114    0:10   29.5    39    2.4   226      3.4    844     0.00       0     51.1
 114    0:20   30.0    38    3.5   230      4.8    844     0.00       0     50.9
 114    0:30   31.9    37    3.0   209      4.5    844     0.00       0     50.7
 114    0:40   32.7    37    3.8   188      5.2    844     0.00       0     50.5
 114    0:50   33.6    36    3.1   169      4.4    844     0.00       0     50.4
 114    1:00   34.7    36    3.2   150      5.0    844     0.00       0     50.4
 114    1:10   36.5    36    4.4   142      5.3    844     0.00       0     50.3
 114    1:20   37.6    36    3.5   130      4.6    844     0.00       0     50.3
 114    1:30   37.7    36    2.2   142      2.9    844     0.00       0     50.3
 114    1:40   36.4    35    2.2   299      3.7    844     0.00       0     50.2
 114    1:50   33.8    35    3.0   323      5.3    844     0.00       0     50.1
 114    2:00   32.9    35    2.8   301      4.3    844     0.00       0     50.0
 114    2:10   32.7    35    2.3   304      3.0    844     0.00       0     49.9
 114    2:20   32.9    36    1.3   313      3.8    844     0.00       0     49.7
 114    2:30   33.6    36    4.0   112      6.4    843     0.00       0     49.6
 114    2:40   34.2    35    4.6   115      6.4    844     0.00       0     49.5
 114    2:50   34.7    36    4.0   124      5.3    844     0.00       0     49.5
 114    3:00   34.4    36    1.4   123      3.4    844     0.00       0     49.4
 114    3:10   33.5    37    1.9   294      6.1    844     0.00       0     49.2
 114    3:20   31.9    37    2.5   246      3.7    844     0.00       0     49.1
 114    3:30   31.3    39    1.7   182      4.4    844     0.00       0     48.9
 114    3:40   31.3    38    2.1   171      4.2    844     0.00       0     48.6
 114    3:50   30.8    40    5.6   121      6.9    844     0.00       0     48.4
 114    4:00   31.7    41    3.2   163      6.1    844     0.00       0     48.2
 114    4:10   32.3    39    2.0   300      5.1    844     0.00       0     48.0
 114    4:20   32.1    40    1.3   222      2.6    844     0.00       0     47.9
 114    4:30   32.6    40    1.5   245      4.2    844     0.00       0     47.8
 114    4:40   32.8    39    2.4   240      4.7    844     0.00       0     47.7
 114    4:50   32.2    40    2.6   227      4.7    844     0.00       0     47.5
 114    5:00   31.0    41    2.7   231      4.5    844     0.00       2     47.4
 114    5:10   31.0    42    2.7   210      5.9    844     0.00       5     47.2
 114    5:20   31.7    42    1.9   174      5.5    844     0.00      11     47.0
 114    5:30   35.2    39    2.3   240      4.2    844     0.00      42     46.9
 114    5:40   36.8    36    0.7   168      2.3    844     0.00      75     46.7
 114    5:50   38.1    34    1.6    88      4.2    844     0.00      97     46.6
 114    6:00   38.5    34    2.9   101      4.5    844     0.00     128     46.6
 114    6:10   40.0    33    2.8    61      4.7    844     0.00     170     46.7
 114    6:20   44.5    33    2.6   129      7.2    844     0.00     222     46.8
 114    6:30   47.4    32    2.1   179      5.4    844     0.00     223     47.1
 114    6:40   45.7    29    5.3    27      9.6    845     0.00     247     47.5
 114    6:50   46.4    31    5.2    14      9.4    845     0.00     238     47.9
 114    7:00   48.3    32    2.9    52      5.8    845     0.00     130     48.4
 114    7:10   49.0    31    4.0    65      8.9    845     0.00     177     48.9
 114    7:20   49.1    31    4.8   232      9.3    845     0.00     135     49.2
 114    7:30   47.9    30    4.8   265     10.2    845     0.00     269     49.5
 114    7:40   50.2    32    7.6   207     12.9    844     0.00     140     49.8
 114    7:50   52.2    30   11.5   199     18.3    844     0.00     360     50.1
 114    8:00   54.9    25   12.9   198     19.0    845     0.00     473     50.5
 114    8:10   56.1    24   11.4   196     18.1    845     0.00     540     51.0
 114    8:20   56.5    24   11.1   202     17.2    845     0.00     588     51.9
 114    8:30   57.0    24   11.0   203     17.2    845     0.00     533     52.8
 114    8:40   57.7    24   12.3   201     18.0    845     0.00     520     53.7
 114    8:50   57.4    24   13.1   198     20.5    845     0.00     447     54.6
 114    9:00   57.3    25   11.6   203     16.6    845     0.00     506     55.3
 114    9:10   58.1    25   11.3   209     16.7    845     0.00     524     55.9
 114    9:20   58.1    25   11.6   214     20.2    846     0.00     519     56.5
 114    9:30   58.0    25   11.7   209     18.0    846     0.00     447     57.0
 114    9:40   58.5    25   12.7   199     21.5    846     0.00     558     57.5
 114    9:50   59.5    24   12.1   208     20.0    846     0.00     587     58.0
 114   10:00   59.3    24   11.6   201     18.8    846     0.00     497     58.5
 114   10:10   59.6    24   11.9   198     21.9    846     0.00     573     58.9
 114   10:20   59.9    24   13.2   194     21.0    846     0.00     609     59.4
 114   10:30   60.5    24    9.9   203     15.6    846     0.00     623     59.9
 114   10:40   61.1    23    9.7   228     17.7    846     0.00     640     60.4
 114   10:50   60.9    23   11.1   195     17.8    845     0.00     520     61.0
 114   11:00   61.0    22   10.2   198     17.0    845     0.00     647     61.6
 114   11:10   61.4    21    8.2   207     15.1    845     0.00     661     62.0
 114   11:20   62.2    21   10.9   206     20.8    844     0.00     830     62.5
 114   11:30   63.3    20   10.8   197     19.7    845     0.00     809     63.0
 114   11:40   63.0    20    9.9   202     17.9    845     0.00     736     63.6
 114   11:50   64.4    19   13.2   199     22.7    846     0.00     913     64.2
 114   12:00   63.9    20   12.8   208     24.8    846     0.00     781     64.9
 114   12:10   63.3    20   12.0   210     21.8    844     0.00     675     65.6
 114   12:20   63.0    20   10.8   203     19.4    844     0.00     633     66.0

Return to Carson Sink graphs page.


Western Regional Climate Center,wrcc@dri.edu